sensor_id;sensor_type;location;lat;lon;timestamp;temperature;humidity
69393;SHT31;56582;44.624;20.378;2024-03-25T00:02:19;4.59;92.83
69393;SHT31;56582;44.624;20.378;2024-03-25T00:04:44;4.37;93.08
69393;SHT31;56582;44.624;20.378;2024-03-25T00:07:10;4.28;93.54
69393;SHT31;56582;44.624;20.378;2024-03-25T00:09:36;4.34;93.99
69393;SHT31;56582;44.624;20.378;2024-03-25T00:12:01;4.46;93.65
69393;SHT31;56582;44.624;20.378;2024-03-25T00:14:29;4.44;93.22
69393;SHT31;56582;44.624;20.378;2024-03-25T00:16:55;4.46;93.08
69393;SHT31;56582;44.624;20.378;2024-03-25T00:19:21;4.50;92.49
69393;SHT31;56582;44.624;20.378;2024-03-25T00:21:46;4.50;91.92
69393;SHT31;56582;44.624;20.378;2024-03-25T00:24:12;4.46;92.17
69393;SHT31;56582;44.624;20.378;2024-03-25T00:26:38;4.38;92.69
69393;SHT31;56582;44.624;20.378;2024-03-25T00:29:03;4.29;92.91
69393;SHT31;56582;44.624;20.378;2024-03-25T00:31:29;4.35;92.91
69393;SHT31;56582;44.624;20.378;2024-03-25T00:33:54;4.48;93.02
69393;SHT31;56582;44.624;20.378;2024-03-25T00:36:20;4.41;92.80
69393;SHT31;56582;44.624;20.378;2024-03-25T00:38:45;4.35;92.88
69393;SHT31;56582;44.624;20.378;2024-03-25T00:41:11;4.18;92.82
69393;SHT31;56582;44.624;20.378;2024-03-25T00:43:37;4.10;93.08
69393;SHT31;56582;44.624;20.378;2024-03-25T00:46:02;4.28;92.97
69393;SHT31;56582;44.624;20.378;2024-03-25T00:48:28;4.42;92.71
69393;SHT31;56582;44.624;20.378;2024-03-25T00:50:53;4.53;92.06
69393;SHT31;56582;44.624;20.378;2024-03-25T00:53:19;4.65;91.84
69393;SHT31;56582;44.624;20.378;2024-03-25T00:55:45;4.35;91.56
69393;SHT31;56582;44.624;20.378;2024-03-25T00:58:10;4.39;91.61
69393;SHT31;56582;44.624;20.378;2024-03-25T01:00:36;4.38;91.06
69393;SHT31;56582;44.624;20.378;2024-03-25T01:03:01;4.46;90.82
69393;SHT31;56582;44.624;20.378;2024-03-25T01:05:27;4.52;90.48
69393;SHT31;56582;44.624;20.378;2024-03-25T01:07:53;4.59;90.16
69393;SHT31;56582;44.624;20.378;2024-03-25T01:10:18;4.65;89.53
69393;SHT31;56582;44.624;20.378;2024-03-25T01:12:44;4.46;89.53
69393;SHT31;56582;44.624;20.378;2024-03-25T01:15:10;4.32;89.63
69393;SHT31;56582;44.624;20.378;2024-03-25T01:17:37;4.31;89.64
69393;SHT31;56582;44.624;20.378;2024-03-25T01:20:03;4.34;89.27
69393;SHT31;56582;44.624;20.378;2024-03-25T01:22:31;4.27;88.94
69393;SHT31;56582;44.624;20.378;2024-03-25T01:24:57;4.37;88.86
69393;SHT31;56582;44.624;20.378;2024-03-25T01:27:23;4.37;88.58
69393;SHT31;56582;44.624;20.378;2024-03-25T01:29:48;4.25;89.13
69393;SHT31;56582;44.624;20.378;2024-03-25T01:32:16;4.31;88.67
69393;SHT31;56582;44.624;20.378;2024-03-25T01:34:41;4.37;88.55
69393;SHT31;56582;44.624;20.378;2024-03-25T01:37:07;4.59;87.75
69393;SHT31;56582;44.624;20.378;2024-03-25T01:39:32;4.53;87.74
69393;SHT31;56582;44.624;20.378;2024-03-25T01:41:58;4.46;87.65
69393;SHT31;56582;44.624;20.378;2024-03-25T01:44:24;4.45;87.99
69393;SHT31;56582;44.624;20.378;2024-03-25T01:46:49;4.27;88.20
69393;SHT31;56582;44.624;20.378;2024-03-25T01:49:15;4.18;88.84
69393;SHT31;56582;44.624;20.378;2024-03-25T01:51:41;4.05;89.08
69393;SHT31;56582;44.624;20.378;2024-03-25T01:54:08;4.08;89.81
69393;SHT31;56582;44.624;20.378;2024-03-25T01:56:34;4.20;89.36
69393;SHT31;56582;44.624;20.378;2024-03-25T01:59:02;4.35;89.14
69393;SHT31;56582;44.624;20.378;2024-03-25T02:01:29;4.32;88.82
69393;SHT31;56582;44.624;20.378;2024-03-25T02:03:55;4.45;88.94
69393;SHT31;56582;44.624;20.378;2024-03-25T02:06:21;4.37;89.13
69393;SHT31;56582;44.624;20.378;2024-03-25T02:08:48;4.41;89.21
69393;SHT31;56582;44.624;20.378;2024-03-25T02:11:14;4.37;89.08
69393;SHT31;56582;44.624;20.378;2024-03-25T02:13:40;4.35;89.67
69393;SHT31;56582;44.624;20.378;2024-03-25T02:16:06;4.35;89.72
69393;SHT31;56582;44.624;20.378;2024-03-25T02:18:32;4.29;89.67
69393;SHT31;56582;44.624;20.378;2024-03-25T02:20:59;4.14;90.21
69393;SHT31;56582;44.624;20.378;2024-03-25T02:23:27;4.02;90.57
69393;SHT31;56582;44.624;20.378;2024-03-25T02:25:53;3.93;90.38
69393;SHT31;56582;44.624;20.378;2024-03-25T02:28:19;3.91;90.28
69393;SHT31;56582;44.624;20.378;2024-03-25T02:30:45;4.01;90.20
69393;SHT31;56582;44.624;20.378;2024-03-25T02:33:11;4.15;89.84
69393;SHT31;56582;44.624;20.378;2024-03-25T02:35:38;4.21;89.53
69393;SHT31;56582;44.624;20.378;2024-03-25T02:38:04;4.37;88.58
69393;SHT31;56582;44.624;20.378;2024-03-25T02:40:31;4.50;87.65
69393;SHT31;56582;44.624;20.378;2024-03-25T02:42:57;4.32;87.93
69393;SHT31;56582;44.624;20.378;2024-03-25T02:45:23;4.20;88.81
69393;SHT31;56582;44.624;20.378;2024-03-25T02:47:50;4.21;88.30
69393;SHT31;56582;44.624;20.378;2024-03-25T02:50:16;4.15;88.36
69393;SHT31;56582;44.624;20.378;2024-03-25T02:52:41;4.05;88.78
69393;SHT31;56582;44.624;20.378;2024-03-25T02:55:07;4.20;89.13
69393;SHT31;56582;44.624;20.378;2024-03-25T02:57:33;4.08;89.80
69393;SHT31;56582;44.624;20.378;2024-03-25T02:59:58;4.21;89.51
69393;SHT31;56582;44.624;20.378;2024-03-25T03:02:24;4.24;89.54
69393;SHT31;56582;44.624;20.378;2024-03-25T03:04:50;4.20;90.06
69393;SHT31;56582;44.624;20.378;2024-03-25T03:07:15;4.17;90.67
69393;SHT31;56582;44.624;20.378;2024-03-25T03:09:41;4.14;90.71
69393;SHT31;56582;44.624;20.378;2024-03-25T03:12:07;4.18;90.88
69393;SHT31;56582;44.624;20.378;2024-03-25T03:14:32;4.27;90.28
69393;SHT31;56582;44.624;20.378;2024-03-25T03:16:58;4.10;90.64
69393;SHT31;56582;44.624;20.378;2024-03-25T03:19:27;4.12;90.99
69393;SHT31;56582;44.624;20.378;2024-03-25T03:21:53;4.18;90.54
69393;SHT31;56582;44.624;20.378;2024-03-25T03:24:19;4.20;90.52
69393;SHT31;56582;44.624;20.378;2024-03-25T03:26:45;4.18;91.10
69393;SHT31;56582;44.624;20.378;2024-03-25T03:29:11;4.08;91.15
69393;SHT31;56582;44.624;20.378;2024-03-25T03:31:36;4.21;90.72
69393;SHT31;56582;44.624;20.378;2024-03-25T03:34:05;4.29;90.91
69393;SHT31;56582;44.624;20.378;2024-03-25T03:36:31;4.24;90.34
69393;SHT31;56582;44.624;20.378;2024-03-25T03:38:56;4.29;90.43
69393;SHT31;56582;44.624;20.378;2024-03-25T03:41:22;4.42;90.39
69393;SHT31;56582;44.624;20.378;2024-03-25T03:43:48;4.31;90.17
69393;SHT31;56582;44.624;20.378;2024-03-25T03:46:13;4.14;90.22
69393;SHT31;56582;44.624;20.378;2024-03-25T03:48:39;4.14;91.03
69393;SHT31;56582;44.624;20.378;2024-03-25T03:51:05;4.32;90.51
69393;SHT31;56582;44.624;20.378;2024-03-25T03:53:32;4.34;90.39
69393;SHT31;56582;44.624;20.378;2024-03-25T03:56:00;4.27;90.50
69393;SHT31;56582;44.624;20.378;2024-03-25T03:58:32;4.34;90.22
69393;SHT31;56582;44.624;20.378;2024-03-25T04:00:58;4.18;90.41
69393;SHT31;56582;44.624;20.378;2024-03-25T04:03:24;4.15;90.63
69393;SHT31;56582;44.624;20.378;2024-03-25T04:05:50;4.00;90.27
69393;SHT31;56582;44.624;20.378;2024-03-25T04:08:16;3.97;90.68
69393;SHT31;56582;44.624;20.378;2024-03-25T04:10:43;3.90;90.63
69393;SHT31;56582;44.624;20.378;2024-03-25T04:13:09;3.89;91.19
69393;SHT31;56582;44.624;20.378;2024-03-25T04:15:35;4.00;91.07
69393;SHT31;56582;44.624;20.378;2024-03-25T04:18:01;3.91;91.35
69393;SHT31;56582;44.624;20.378;2024-03-25T04:20:27;3.80;91.74
69393;SHT31;56582;44.624;20.378;2024-03-25T04:22:54;3.97;91.69
69393;SHT31;56582;44.624;20.378;2024-03-25T04:25:19;4.10;91.35
69393;SHT31;56582;44.624;20.378;2024-03-25T04:27:45;4.17;91.08
69393;SHT31;56582;44.624;20.378;2024-03-25T04:30:11;3.97;91.25
69393;SHT31;56582;44.624;20.378;2024-03-25T04:32:40;3.83;91.63
69393;SHT31;56582;44.624;20.378;2024-03-25T04:35:07;3.91;91.48
69393;SHT31;56582;44.624;20.378;2024-03-25T04:37:34;3.91;91.26
69393;SHT31;56582;44.624;20.378;2024-03-25T04:39:59;3.95;91.13
69393;SHT31;56582;44.624;20.378;2024-03-25T04:42:25;3.84;91.28
69393;SHT31;56582;44.624;20.378;2024-03-25T04:44:51;3.89;91.86
69393;SHT31;56582;44.624;20.378;2024-03-25T04:47:17;3.93;91.40
69393;SHT31;56582;44.624;20.378;2024-03-25T04:49:43;4.04;91.35
69393;SHT31;56582;44.624;20.378;2024-03-25T04:52:10;4.10;91.31
69393;SHT31;56582;44.624;20.378;2024-03-25T04:54:38;4.21;91.13
69393;SHT31;56582;44.624;20.378;2024-03-25T04:57:04;3.97;91.29
69393;SHT31;56582;44.624;20.378;2024-03-25T04:59:31;3.93;91.78
69393;SHT31;56582;44.624;20.378;2024-03-25T05:01:57;3.79;92.14
69393;SHT31;56582;44.624;20.378;2024-03-25T05:04:23;3.81;92.07
69393;SHT31;56582;44.624;20.378;2024-03-25T05:06:50;3.93;92.25
69393;SHT31;56582;44.624;20.378;2024-03-25T05:09:15;3.98;92.00
69393;SHT31;56582;44.624;20.378;2024-03-25T05:11:42;4.10;92.11
69393;SHT31;56582;44.624;20.378;2024-03-25T05:14:07;4.04;92.06
69393;SHT31;56582;44.624;20.378;2024-03-25T05:16:33;4.10;92.02
69393;SHT31;56582;44.624;20.378;2024-03-25T05:18:59;4.10;91.97
69393;SHT31;56582;44.624;20.378;2024-03-25T05:21:24;4.05;92.06
69393;SHT31;56582;44.624;20.378;2024-03-25T05:23:50;4.21;92.19
69393;SHT31;56582;44.624;20.378;2024-03-25T05:26:16;4.29;92.14
69393;SHT31;56582;44.624;20.378;2024-03-25T05:28:41;4.48;91.94
69393;SHT31;56582;44.624;20.378;2024-03-25T05:31:09;4.37;91.53
69393;SHT31;56582;44.624;20.378;2024-03-25T05:33:36;4.41;91.69
69393;SHT31;56582;44.624;20.378;2024-03-25T05:36:02;4.35;92.05
69393;SHT31;56582;44.624;20.378;2024-03-25T05:38:28;4.50;91.56
69393;SHT31;56582;44.624;20.378;2024-03-25T05:40:54;4.55;91.43
69393;SHT31;56582;44.624;20.378;2024-03-25T05:43:20;4.58;91.13
69393;SHT31;56582;44.624;20.378;2024-03-25T05:45:55;4.56;91.42
69393;SHT31;56582;44.624;20.378;2024-03-25T05:48:21;4.58;91.40
69393;SHT31;56582;44.624;20.378;2024-03-25T05:51:06;4.72;91.39
69393;SHT31;56582;44.624;20.378;2024-03-25T05:53:34;4.70;91.41
69393;SHT31;56582;44.624;20.378;2024-03-25T05:56:00;4.75;91.49
69393;SHT31;56582;44.624;20.378;2024-03-25T05:58:26;4.84;91.83
69393;SHT31;56582;44.624;20.378;2024-03-25T06:00:52;4.76;91.54
69393;SHT31;56582;44.624;20.378;2024-03-25T06:03:21;4.86;91.65
69393;SHT31;56582;44.624;20.378;2024-03-25T06:05:47;4.96;91.22
69393;SHT31;56582;44.624;20.378;2024-03-25T06:08:13;5.00;90.71
69393;SHT31;56582;44.624;20.378;2024-03-25T06:10:52;4.81;90.94
69393;SHT31;56582;44.624;20.378;2024-03-25T06:13:18;4.81;91.17
69393;SHT31;56582;44.624;20.378;2024-03-25T06:15:44;4.80;91.30
69393;SHT31;56582;44.624;20.378;2024-03-25T06:18:09;4.97;91.44
69393;SHT31;56582;44.624;20.378;2024-03-25T06:20:35;5.07;91.48
69393;SHT31;56582;44.624;20.378;2024-03-25T06:23:01;5.04;91.21
69393;SHT31;56582;44.624;20.378;2024-03-25T06:25:29;5.37;94.76
69393;SHT31;56582;44.624;20.378;2024-03-25T06:27:55;5.56;92.75
69393;SHT31;56582;44.624;20.378;2024-03-25T06:30:21;5.99;91.38
69393;SHT31;56582;44.624;20.378;2024-03-25T06:33:05;6.14;90.32
69393;SHT31;56582;44.624;20.378;2024-03-25T06:35:49;6.18;90.53
69393;SHT31;56582;44.624;20.378;2024-03-25T06:38:15;6.38;90.27
69393;SHT31;56582;44.624;20.378;2024-03-25T06:40:40;6.45;88.53
69393;SHT31;56582;44.624;20.378;2024-03-25T06:43:09;6.30;87.86
69393;SHT31;56582;44.624;20.378;2024-03-25T06:45:35;6.26;88.43
69393;SHT31;56582;44.624;20.378;2024-03-25T06:48:00;6.36;88.28
69393;SHT31;56582;44.624;20.378;2024-03-25T06:50:26;6.36;88.20
69393;SHT31;56582;44.624;20.378;2024-03-25T06:52:52;6.52;88.62
69393;SHT31;56582;44.624;20.378;2024-03-25T06:55:17;6.64;87.63
69393;SHT31;56582;44.624;20.378;2024-03-25T06:57:48;6.55;87.95
69393;SHT31;56582;44.624;20.378;2024-03-25T07:00:13;6.57;87.68
69393;SHT31;56582;44.624;20.378;2024-03-25T07:02:40;6.37;86.97
69393;SHT31;56582;44.624;20.378;2024-03-25T07:05:06;6.37;87.08
69393;SHT31;56582;44.624;20.378;2024-03-25T07:07:32;6.09;87.39
69393;SHT31;56582;44.624;20.378;2024-03-25T07:09:59;6.11;87.83
69393;SHT31;56582;44.624;20.378;2024-03-25T07:12:24;6.31;88.04
69393;SHT31;56582;44.624;20.378;2024-03-25T07:14:50;6.27;87.04
69393;SHT31;56582;44.624;20.378;2024-03-25T07:17:15;6.33;87.29
69393;SHT31;56582;44.624;20.378;2024-03-25T07:19:41;6.48;88.14
69393;SHT31;56582;44.624;20.378;2024-03-25T07:22:07;6.71;86.51
69393;SHT31;56582;44.624;20.378;2024-03-25T07:24:33;6.69;86.89
69393;SHT31;56582;44.624;20.378;2024-03-25T07:26:59;6.74;86.99
69393;SHT31;56582;44.624;20.378;2024-03-25T07:29:24;7.10;87.96
69393;SHT31;56582;44.624;20.378;2024-03-25T07:31:50;6.81;85.77
69393;SHT31;56582;44.624;20.378;2024-03-25T07:34:15;7.22;85.93
69393;SHT31;56582;44.624;20.378;2024-03-25T07:36:41;7.22;84.94
69393;SHT31;56582;44.624;20.378;2024-03-25T07:39:07;7.23;85.27
69393;SHT31;56582;44.624;20.378;2024-03-25T07:41:36;7.36;84.43
69393;SHT31;56582;44.624;20.378;2024-03-25T07:44:02;7.06;83.52
69393;SHT31;56582;44.624;20.378;2024-03-25T07:46:27;7.33;85.91
69393;SHT31;56582;44.624;20.378;2024-03-25T07:48:53;7.34;84.69
69393;SHT31;56582;44.624;20.378;2024-03-25T07:51:19;7.68;86.60
69393;SHT31;56582;44.624;20.378;2024-03-25T07:53:44;7.67;84.75
69393;SHT31;56582;44.624;20.378;2024-03-25T07:56:10;7.82;84.77
69393;SHT31;56582;44.624;20.378;2024-03-25T07:58:35;7.95;84.03
69393;SHT31;56582;44.624;20.378;2024-03-25T08:01:01;8.09;82.48
69393;SHT31;56582;44.624;20.378;2024-03-25T08:03:26;8.06;83.05
69393;SHT31;56582;44.624;20.378;2024-03-25T08:05:52;8.23;80.14
69393;SHT31;56582;44.624;20.378;2024-03-25T08:08:17;8.07;81.29
69393;SHT31;56582;44.624;20.378;2024-03-25T08:10:43;8.07;80.88
69393;SHT31;56582;44.624;20.378;2024-03-25T08:13:09;8.16;81.16
69393;SHT31;56582;44.624;20.378;2024-03-25T08:15:35;8.42;82.32
69393;SHT31;56582;44.624;20.378;2024-03-25T08:18:00;8.42;80.63
69393;SHT31;56582;44.624;20.378;2024-03-25T08:20:26;8.44;81.17
69393;SHT31;56582;44.624;20.378;2024-03-25T08:22:52;8.56;80.66
69393;SHT31;56582;44.624;20.378;2024-03-25T08:25:17;8.61;79.76
69393;SHT31;56582;44.624;20.378;2024-03-25T08:27:43;8.53;78.29
69393;SHT31;56582;44.624;20.378;2024-03-25T08:30:09;8.61;79.83
69393;SHT31;56582;44.624;20.378;2024-03-25T08:32:35;8.94;79.76
69393;SHT31;56582;44.624;20.378;2024-03-25T08:35:00;9.22;78.84
69393;SHT31;56582;44.624;20.378;2024-03-25T08:37:26;9.19;77.57
69393;SHT31;56582;44.624;20.378;2024-03-25T08:39:52;9.42;78.29
69393;SHT31;56582;44.624;20.378;2024-03-25T08:42:17;9.83;77.47
69393;SHT31;56582;44.624;20.378;2024-03-25T08:44:43;9.49;72.20
69393;SHT31;56582;44.624;20.378;2024-03-25T08:47:08;9.84;75.13
69393;SHT31;56582;44.624;20.378;2024-03-25T08:49:34;9.94;73.71
69393;SHT31;56582;44.624;20.378;2024-03-25T08:51:59;10.14;74.39
69393;SHT31;56582;44.624;20.378;2024-03-25T08:54:25;9.40;72.50
69393;SHT31;56582;44.624;20.378;2024-03-25T08:56:51;9.83;70.22
69393;SHT31;56582;44.624;20.378;2024-03-25T08:59:16;9.23;68.30
69393;SHT31;56582;44.624;20.378;2024-03-25T09:01:42;9.32;67.89
69393;SHT31;56582;44.624;20.378;2024-03-25T09:04:08;9.60;69.90
69393;SHT31;56582;44.624;20.378;2024-03-25T09:06:34;9.74;69.82
69393;SHT31;56582;44.624;20.378;2024-03-25T09:09:02;9.77;72.52
69393;SHT31;56582;44.624;20.378;2024-03-25T09:11:45;10.01;69.69
69393;SHT31;56582;44.624;20.378;2024-03-25T09:14:11;10.28;70.61
69393;SHT31;56582;44.624;20.378;2024-03-25T09:16:37;10.32;71.13
69393;SHT31;56582;44.624;20.378;2024-03-25T09:19:03;9.93;68.06
69393;SHT31;56582;44.624;20.378;2024-03-25T09:21:28;10.21;69.33
69393;SHT31;56582;44.624;20.378;2024-03-25T09:23:55;10.04;66.02
69393;SHT31;56582;44.624;20.378;2024-03-25T09:26:23;10.27;68.35
69393;SHT31;56582;44.624;20.378;2024-03-25T09:28:49;10.31;68.31
69393;SHT31;56582;44.624;20.378;2024-03-25T09:31:14;10.04;65.52
69393;SHT31;56582;44.624;20.378;2024-03-25T09:33:40;10.18;65.03
69393;SHT31;56582;44.624;20.378;2024-03-25T09:36:06;10.29;64.46
69393;SHT31;56582;44.624;20.378;2024-03-25T09:38:31;10.38;65.09
69393;SHT31;56582;44.624;20.378;2024-03-25T09:40:57;10.65;66.53
69393;SHT31;56582;44.624;20.378;2024-03-25T09:43:44;10.92;65.86
69393;SHT31;56582;44.624;20.378;2024-03-25T09:46:13;10.21;63.70
69393;SHT31;56582;44.624;20.378;2024-03-25T09:48:41;10.75;66.64
69393;SHT31;56582;44.624;20.378;2024-03-25T09:51:07;11.06;65.15
69393;SHT31;56582;44.624;20.378;2024-03-25T09:53:32;11.04;65.95
69393;SHT31;56582;44.624;20.378;2024-03-25T09:55:58;10.52;65.39
69393;SHT31;56582;44.624;20.378;2024-03-25T09:58:27;10.65;65.51
69393;SHT31;56582;44.624;20.378;2024-03-25T10:00:53;11.21;63.78
69393;SHT31;56582;44.624;20.378;2024-03-25T10:03:21;10.90;65.17
69393;SHT31;56582;44.624;20.378;2024-03-25T10:05:46;10.53;66.21
69393;SHT31;56582;44.624;20.378;2024-03-25T10:08:12;10.56;67.12
69393;SHT31;56582;44.624;20.378;2024-03-25T10:10:37;10.24;64.27
69393;SHT31;56582;44.624;20.378;2024-03-25T10:13:04;10.19;63.96
69393;SHT31;56582;44.624;20.378;2024-03-25T10:15:30;10.21;65.83
69393;SHT31;56582;44.624;20.378;2024-03-25T10:17:56;10.39;64.71
69393;SHT31;56582;44.624;20.378;2024-03-25T10:20:22;10.68;66.93
69393;SHT31;56582;44.624;20.378;2024-03-25T10:22:48;10.66;65.30
69393;SHT31;56582;44.624;20.378;2024-03-25T10:25:30;10.92;64.63
69393;SHT31;56582;44.624;20.378;2024-03-25T10:28:02;11.06;64.61
69393;SHT31;56582;44.624;20.378;2024-03-25T10:30:28;11.44;63.03
69393;SHT31;56582;44.624;20.378;2024-03-25T10:33:03;11.27;60.51
69393;SHT31;56582;44.624;20.378;2024-03-25T10:35:31;11.00;59.56
69393;SHT31;56582;44.624;20.378;2024-03-25T10:38:06;10.53;60.13
69393;SHT31;56582;44.624;20.378;2024-03-25T10:40:33;10.62;62.90
69393;SHT31;56582;44.624;20.378;2024-03-25T10:43:04;10.45;63.19
69393;SHT31;56582;44.624;20.378;2024-03-25T10:45:40;10.89;63.49
69393;SHT31;56582;44.624;20.378;2024-03-25T10:48:19;10.79;61.04
69393;SHT31;56582;44.624;20.378;2024-03-25T10:50:47;10.53;62.09
69393;SHT31;56582;44.624;20.378;2024-03-25T10:53:17;10.32;62.78
69393;SHT31;56582;44.624;20.378;2024-03-25T10:55:46;10.77;62.74
69393;SHT31;56582;44.624;20.378;2024-03-25T10:58:15;10.96;62.35
69393;SHT31;56582;44.624;20.378;2024-03-25T11:00:42;11.20;63.56
69393;SHT31;56582;44.624;20.378;2024-03-25T11:03:08;11.27;61.53
69393;SHT31;56582;44.624;20.378;2024-03-25T11:05:34;10.84;58.03
69393;SHT31;56582;44.624;20.378;2024-03-25T11:08:13;10.89;60.65
69393;SHT31;56582;44.624;20.378;2024-03-25T11:10:43;10.60;60.11
69393;SHT31;56582;44.624;20.378;2024-03-25T11:13:19;10.86;62.50
69393;SHT31;56582;44.624;20.378;2024-03-25T11:15:46;10.95;60.31
69393;SHT31;56582;44.624;20.378;2024-03-25T11:18:16;11.14;62.00
69393;SHT31;56582;44.624;20.378;2024-03-25T11:20:43;11.41;62.70
69393;SHT31;56582;44.624;20.378;2024-03-25T11:23:12;11.27;61.16
69393;SHT31;56582;44.624;20.378;2024-03-25T11:25:39;11.14;61.12
69393;SHT31;56582;44.624;20.378;2024-03-25T11:28:05;10.96;60.30
69393;SHT31;56582;44.624;20.378;2024-03-25T11:30:31;11.10;60.24
69393;SHT31;56582;44.624;20.378;2024-03-25T11:33:01;11.28;59.68
69393;SHT31;56582;44.624;20.378;2024-03-25T11:35:28;11.74;60.43
69393;SHT31;56582;44.624;20.378;2024-03-25T11:37:54;12.36;62.79
69393;SHT31;56582;44.624;20.378;2024-03-25T11:40:20;12.71;61.24
69393;SHT31;56582;44.624;20.378;2024-03-25T11:42:46;12.95;60.17
69393;SHT31;56582;44.624;20.378;2024-03-25T11:45:19;12.96;56.64
69393;SHT31;56582;44.624;20.378;2024-03-25T11:47:46;12.92;57.25
69393;SHT31;56582;44.624;20.378;2024-03-25T11:50:17;13.20;58.17
69393;SHT31;56582;44.624;20.378;2024-03-25T11:52:43;13.06;55.26
69393;SHT31;56582;44.624;20.378;2024-03-25T11:55:09;12.72;54.41
69393;SHT31;56582;44.624;20.378;2024-03-25T11:57:37;12.82;58.42
69393;SHT31;56582;44.624;20.378;2024-03-25T12:00:03;13.24;58.82
69393;SHT31;56582;44.624;20.378;2024-03-25T12:02:31;13.46;57.56
69393;SHT31;56582;44.624;20.378;2024-03-25T12:05:01;13.16;56.20
69393;SHT31;56582;44.624;20.378;2024-03-25T12:07:27;13.20;56.16
69393;SHT31;56582;44.624;20.378;2024-03-25T12:09:53;13.20;54.41
69393;SHT31;56582;44.624;20.378;2024-03-25T12:12:37;13.36;54.59
69393;SHT31;56582;44.624;20.378;2024-03-25T12:15:05;13.82;58.50
69393;SHT31;56582;44.624;20.378;2024-03-25T12:17:33;13.80;55.57
69393;SHT31;56582;44.624;20.378;2024-03-25T12:20:08;14.05;55.77
69393;SHT31;56582;44.624;20.378;2024-03-25T12:22:37;13.78;51.77
69393;SHT31;56582;44.624;20.378;2024-03-25T12:25:05;14.11;53.12
69393;SHT31;56582;44.624;20.378;2024-03-25T12:27:32;13.30;50.07
69393;SHT31;56582;44.624;20.378;2024-03-25T12:30:04;13.29;51.09
69393;SHT31;56582;44.624;20.378;2024-03-25T12:35:15;13.70;51.41
69393;SHT31;56582;44.624;20.378;2024-03-25T12:37:48;13.60;51.63
69393;SHT31;56582;44.624;20.378;2024-03-25T12:40:26;12.99;50.01
69393;SHT31;56582;44.624;20.378;2024-03-25T12:42:53;12.85;51.24
69393;SHT31;56582;44.624;20.378;2024-03-25T12:45:22;12.43;52.68
69393;SHT31;56582;44.624;20.378;2024-03-25T12:47:49;11.72;57.59
69393;SHT31;56582;44.624;20.378;2024-03-25T12:50:15;11.17;60.35
69393;SHT31;56582;44.624;20.378;2024-03-25T12:52:40;10.58;63.29
69393;SHT31;56582;44.624;20.378;2024-03-25T12:55:12;10.19;66.09
69393;SHT31;56582;44.624;20.378;2024-03-25T12:57:38;9.93;65.61
69393;SHT31;56582;44.624;20.378;2024-03-25T13:00:13;9.54;68.20
69393;SHT31;56582;44.624;20.378;2024-03-25T13:02:39;9.44;68.37
69393;SHT31;56582;44.624;20.378;2024-03-25T13:05:05;9.28;69.57
69393;SHT31;56582;44.624;20.378;2024-03-25T13:07:30;9.38;69.20
69393;SHT31;56582;44.624;20.378;2024-03-25T13:09:57;9.43;68.90
69393;SHT31;56582;44.624;20.378;2024-03-25T13:12:23;9.44;69.05
69393;SHT31;56582;44.624;20.378;2024-03-25T13:14:49;9.73;68.34
69393;SHT31;56582;44.624;20.378;2024-03-25T13:17:15;9.76;69.62
69393;SHT31;56582;44.624;20.378;2024-03-25T13:19:40;9.69;69.15
69393;SHT31;56582;44.624;20.378;2024-03-25T13:22:06;9.70;68.39
69393;SHT31;56582;44.624;20.378;2024-03-25T13:24:32;9.74;69.53
69393;SHT31;56582;44.624;20.378;2024-03-25T13:26:58;9.64;70.54
69393;SHT31;56582;44.624;20.378;2024-03-25T13:29:25;9.91;68.18
69393;SHT31;56582;44.624;20.378;2024-03-25T13:31:51;9.88;68.10
69393;SHT31;56582;44.624;20.378;2024-03-25T13:34:16;10.28;66.87
69393;SHT31;56582;44.624;20.378;2024-03-25T13:36:42;10.50;64.46
69393;SHT31;56582;44.624;20.378;2024-03-25T13:39:08;10.97;64.54
69393;SHT31;56582;44.624;20.378;2024-03-25T13:41:34;11.07;62.82
69393;SHT31;56582;44.624;20.378;2024-03-25T13:44:00;11.23;60.54
69393;SHT31;56582;44.624;20.378;2024-03-25T13:46:26;11.27;60.92
69393;SHT31;56582;44.624;20.378;2024-03-25T13:48:51;11.44;62.56
69393;SHT31;56582;44.624;20.378;2024-03-25T13:51:17;11.61;56.24
69393;SHT31;56582;44.624;20.378;2024-03-25T13:53:43;11.78;56.00
69393;SHT31;56582;44.624;20.378;2024-03-25T13:56:09;11.37;58.02
69393;SHT31;56582;44.624;20.378;2024-03-25T13:58:34;11.39;57.23
69393;SHT31;56582;44.624;20.378;2024-03-25T14:01:00;11.66;58.05
69393;SHT31;56582;44.624;20.378;2024-03-25T14:03:26;11.85;56.88
69393;SHT31;56582;44.624;20.378;2024-03-25T14:05:52;12.09;55.72
69393;SHT31;56582;44.624;20.378;2024-03-25T14:08:17;12.17;57.46
69393;SHT31;56582;44.624;20.378;2024-03-25T14:10:43;11.99;56.46
69393;SHT31;56582;44.624;20.378;2024-03-25T14:13:09;12.19;57.23
69393;SHT31;56582;44.624;20.378;2024-03-25T14:15:34;12.20;56.53
69393;SHT31;56582;44.624;20.378;2024-03-25T14:18:00;12.27;55.66
69393;SHT31;56582;44.624;20.378;2024-03-25T14:20:26;12.33;56.10
69393;SHT31;56582;44.624;20.378;2024-03-25T14:22:51;12.33;56.28
69393;SHT31;56582;44.624;20.378;2024-03-25T14:25:17;12.32;56.55
69393;SHT31;56582;44.624;20.378;2024-03-25T14:27:43;12.44;55.05
69393;SHT31;56582;44.624;20.378;2024-03-25T14:30:09;12.36;55.18
69393;SHT31;56582;44.624;20.378;2024-03-25T14:32:36;12.60;52.62
69393;SHT31;56582;44.624;20.378;2024-03-25T14:35:06;12.57;51.34
69393;SHT31;56582;44.624;20.378;2024-03-25T14:37:32;12.54;48.90
69393;SHT31;56582;44.624;20.378;2024-03-25T14:39:58;12.51;51.50
69393;SHT31;56582;44.624;20.378;2024-03-25T14:42:27;12.54;53.32
69393;SHT31;56582;44.624;20.378;2024-03-25T14:44:53;12.62;53.10
69393;SHT31;56582;44.624;20.378;2024-03-25T14:47:18;12.62;54.01
69393;SHT31;56582;44.624;20.378;2024-03-25T14:49:44;12.50;52.65
69393;SHT31;56582;44.624;20.378;2024-03-25T14:52:10;12.50;54.39
69393;SHT31;56582;44.624;20.378;2024-03-25T14:54:38;12.43;54.29
69393;SHT31;56582;44.624;20.378;2024-03-25T14:57:04;12.27;53.33
69393;SHT31;56582;44.624;20.378;2024-03-25T14:59:30;12.20;52.63
69393;SHT31;56582;44.624;20.378;2024-03-25T15:02:02;12.33;53.40
69393;SHT31;56582;44.624;20.378;2024-03-25T15:04:28;12.34;52.16
69393;SHT31;56582;44.624;20.378;2024-03-25T15:06:55;12.33;52.22
69393;SHT31;56582;44.624;20.378;2024-03-25T15:09:22;12.20;53.27
69393;SHT31;56582;44.624;20.378;2024-03-25T15:11:48;12.38;54.54
69393;SHT31;56582;44.624;20.378;2024-03-25T15:14:14;12.64;51.17
69393;SHT31;56582;44.624;20.378;2024-03-25T15:16:39;12.61;52.70
69393;SHT31;56582;44.624;20.378;2024-03-25T15:19:05;12.41;53.10
69393;SHT31;56582;44.624;20.378;2024-03-25T15:21:33;12.38;52.09
69393;SHT31;56582;44.624;20.378;2024-03-25T15:23:59;12.27;50.39
69393;SHT31;56582;44.624;20.378;2024-03-25T15:26:24;12.14;50.44